createdAt,value
2023-04-01T00:00:08.121Z,25.45
2023-04-01T00:00:18.134Z,25.46
2023-04-01T00:00:28.137Z,25.46
2023-04-01T00:00:38.170Z,25.46
2023-04-01T00:00:48.177Z,25.47
2023-04-01T00:00:58.264Z,25.47
2023-04-01T00:01:08.271Z,25.47
2023-04-01T00:01:18.269Z,25.48
2023-04-01T00:01:28.283Z,25.48
2023-04-01T00:01:38.298Z,25.48
2023-04-01T00:01:48.312Z,25.48
2023-04-01T00:01:58.355Z,25.50
2023-04-01T00:02:08.396Z,25.50
2023-04-01T00:02:18.405Z,25.49
2023-04-01T00:02:28.578Z,25.50
2023-04-01T00:02:38.581Z,25.49
2023-04-01T00:02:48.823Z,25.51
2023-04-01T00:02:58.772Z,25.51
2023-04-01T00:03:08.774Z,25.51
2023-04-01T00:03:18.815Z,25.51
2023-04-01T00:03:28.827Z,25.51
2023-04-01T00:03:39.048Z,25.51
2023-04-01T00:03:48.919Z,25.51
2023-04-01T00:03:59.001Z,25.51
2023-04-01T00:04:09.131Z,25.52
2023-04-01T00:04:19.371Z,25.53
2023-04-01T00:04:29.363Z,25.53
2023-04-01T00:04:39.452Z,25.53
2023-04-01T00:04:49.635Z,25.53
2023-04-01T00:04:59.631Z,25.53
2023-04-01T00:05:09.638Z,25.54
2023-04-01T00:05:19.664Z,25.54
2023-04-01T00:05:29.681Z,25.55
2023-04-01T00:05:39.700Z,25.55
2023-04-01T00:05:49.752Z,25.55
2023-04-01T00:05:59.754Z,25.56
2023-04-01T00:06:09.767Z,25.56
2023-04-01T00:06:19.769Z,25.56
2023-04-01T00:06:29.779Z,25.57
2023-04-01T00:06:39.823Z,25.56
2023-04-01T00:06:49.813Z,25.57
2023-04-01T00:06:59.810Z,25.57
2023-04-01T00:07:09.825Z,25.57
2023-04-01T00:07:19.848Z,25.58
2023-04-01T00:07:30.808Z,25.58
2023-04-01T00:07:39.862Z,25.58
2023-04-01T00:07:49.865Z,25.58
2023-04-01T00:07:59.884Z,25.58
2023-04-01T00:08:09.901Z,25.59
2023-04-01T00:08:19.933Z,25.57
2023-04-01T00:08:29.942Z,25.57
2023-04-01T00:08:39.983Z,25.59
2023-04-01T00:08:49.984Z,25.59
2023-04-01T00:09:00.004Z,25.59
2023-04-01T00:09:10.026Z,25.60
2023-04-01T00:09:20.063Z,25.60
2023-04-01T00:09:30.242Z,25.60
2023-04-01T00:09:40.147Z,25.60
2023-04-01T00:09:50.158Z,25.61
2023-04-01T00:10:00.182Z,25.61
2023-04-01T00:10:10.161Z,25.61
2023-04-01T00:10:20.178Z,25.62
2023-04-01T00:10:30.191Z,25.63
2023-04-01T00:10:40.209Z,25.63
2023-04-01T00:10:50.216Z,25.63
2023-04-01T00:11:00.222Z,25.64
2023-04-01T00:11:10.265Z,25.64
2023-04-01T00:11:20.474Z,25.64
2023-04-01T00:11:30.420Z,25.63
2023-04-01T00:11:40.447Z,25.64
2023-04-01T00:11:50.424Z,25.65
2023-04-01T00:12:00.441Z,25.65
2023-04-01T00:12:10.452Z,25.64
2023-04-01T00:12:20.455Z,25.66
2023-04-01T00:12:30.470Z,25.66
2023-04-01T00:12:40.477Z,25.66
2023-04-01T00:12:50.522Z,25.67
2023-04-01T00:13:00.519Z,25.67
2023-04-01T00:13:10.908Z,25.67
2023-04-01T00:13:20.958Z,25.68
2023-04-01T00:13:31.022Z,25.68
2023-04-01T00:13:41.290Z,25.68
2023-04-01T00:13:51.294Z,25.68
2023-04-01T00:14:01.290Z,25.68
2023-04-01T00:14:11.295Z,25.68
2023-04-01T00:14:21.324Z,25.67
2023-04-01T00:14:31.337Z,25.69
2023-04-01T00:14:41.335Z,25.69
2023-04-01T00:14:51.348Z,25.69
2023-04-01T00:15:01.357Z,25.68
2023-04-01T00:15:11.372Z,25.69
2023-04-01T00:15:21.351Z,25.69
2023-04-01T00:15:31.696Z,25.70
2023-04-01T00:15:41.458Z,25.70
2023-04-01T00:15:51.544Z,25.70
2023-04-01T00:16:03.349Z,25.71
2023-04-01T00:16:21.012Z,25.69
2023-04-01T00:16:22.750Z,25.64
2023-04-01T00:16:31.789Z,25.66
2023-04-01T00:16:41.915Z,25.67
2023-04-01T00:16:52.052Z,25.68
2023-04-01T00:17:02.004Z,25.68
2023-04-01T00:17:12.225Z,25.69
2023-04-01T00:17:22.218Z,25.70
2023-04-01T00:17:32.450Z,25.71
2023-04-01T00:17:42.627Z,25.71
2023-04-01T00:17:52.679Z,25.71
2023-04-01T00:18:02.730Z,25.72
2023-04-01T00:18:13.049Z,25.73
2023-04-01T00:18:23.059Z,25.73
2023-04-01T00:18:33.357Z,25.73
2023-04-01T00:18:43.860Z,25.74
2023-04-01T00:18:53.646Z,25.74
2023-04-01T00:19:03.669Z,25.74
2023-04-01T00:19:13.942Z,25.75
2023-04-01T00:19:23.940Z,25.76
2023-04-01T00:19:34.072Z,25.76
2023-04-01T00:19:43.962Z,25.76
2023-04-01T00:19:53.970Z,25.76
2023-04-01T00:20:03.981Z,25.76
2023-04-01T00:20:13.971Z,25.76
2023-04-01T00:20:23.981Z,25.76
2023-04-01T00:20:34.103Z,25.76
2023-04-01T00:20:44.112Z,25.76
2023-04-01T00:20:54.376Z,25.77
2023-04-01T00:21:04.381Z,25.78
2023-04-01T00:21:14.525Z,25.78
2023-04-01T00:21:24.782Z,25.78
2023-04-01T00:21:34.908Z,25.77
2023-04-01T00:21:44.923Z,25.78
2023-04-01T00:21:55.418Z,25.78
2023-04-01T00:22:05.530Z,25.78
2023-04-01T00:22:15.406Z,25.78
2023-04-01T00:22:25.557Z,25.79
2023-04-01T00:22:35.594Z,25.79
2023-04-01T00:22:45.676Z,25.79
2023-04-01T00:22:55.952Z,25.79
2023-04-01T00:23:05.970Z,25.80
2023-04-01T00:23:16.069Z,25.79
2023-04-01T00:23:26.341Z,25.80
2023-04-01T00:23:36.372Z,25.81
2023-04-01T00:23:46.495Z,25.81
2023-04-01T00:23:56.768Z,25.81
2023-04-01T00:24:06.771Z,25.81
2023-04-01T00:24:16.895Z,25.81
2023-04-01T00:24:27.310Z,25.81
2023-04-01T00:24:37.200Z,25.81
2023-04-01T00:24:47.202Z,25.81
2023-04-01T00:24:57.209Z,25.81
2023-04-01T00:25:07.214Z,25.82
2023-04-01T00:25:17.229Z,25.82
2023-04-01T00:25:27.271Z,25.83
2023-04-01T00:25:37.274Z,25.82
2023-04-01T00:25:47.278Z,25.83
2023-04-01T00:25:57.324Z,25.83
2023-04-01T00:26:07.346Z,25.84
2023-04-01T00:26:17.349Z,25.83
2023-04-01T00:26:27.353Z,25.84
2023-04-01T00:26:37.374Z,25.84
2023-04-01T00:26:47.424Z,25.84
2023-04-01T00:26:57.408Z,25.84
2023-04-01T00:27:07.404Z,25.85
2023-04-01T00:27:17.410Z,25.85
2023-04-01T00:27:27.427Z,25.84
2023-04-01T00:27:37.441Z,25.84
2023-04-01T00:27:47.449Z,25.85
2023-04-01T00:27:57.462Z,25.85
2023-04-01T00:28:07.460Z,25.85
2023-04-01T00:28:17.459Z,25.86
2023-04-01T00:28:27.462Z,25.86
2023-04-01T00:28:37.478Z,25.86
2023-04-01T00:28:47.486Z,25.86
2023-04-01T00:28:57.496Z,25.86
2023-04-01T00:29:07.521Z,25.86
2023-04-01T00:29:17.547Z,25.87
2023-04-01T00:29:27.535Z,25.87
2023-04-01T00:29:37.586Z,25.87
2023-04-01T00:29:47.594Z,25.87
2023-04-01T00:29:57.600Z,25.87
2023-04-01T00:30:07.610Z,25.88
2023-04-01T00:30:17.619Z,25.89
2023-04-01T00:30:27.750Z,25.89
2023-04-01T00:30:37.753Z,25.89
2023-04-01T00:30:48.033Z,25.89
2023-04-01T00:30:58.036Z,25.89
2023-04-01T00:31:08.107Z,25.89
2023-04-01T00:31:18.140Z,25.89
2023-04-01T00:31:28.126Z,25.89
2023-04-01T00:31:38.207Z,25.89
2023-04-01T00:31:48.226Z,25.90
2023-04-01T00:31:58.250Z,25.91
2023-04-01T00:32:08.281Z,25.90
2023-04-01T00:32:18.293Z,25.91
2023-04-01T00:32:28.713Z,25.90
2023-04-01T00:32:38.735Z,25.90
2023-04-01T00:32:48.798Z,25.91
2023-04-01T00:32:58.819Z,25.91
2023-04-01T00:33:08.955Z,25.93
2023-04-01T00:33:18.855Z,25.93
2023-04-01T00:33:28.855Z,25.92
2023-04-01T00:33:38.872Z,25.93
2023-04-01T00:33:48.876Z,25.92
2023-04-01T00:33:58.870Z,25.92
2023-04-01T00:34:09.254Z,25.93
2023-04-01T00:34:19.263Z,25.93
2023-04-01T00:34:29.278Z,25.93
2023-04-01T00:34:39.280Z,25.94
2023-04-01T00:34:49.290Z,25.93
2023-04-01T00:34:59.305Z,25.94
2023-04-01T00:35:09.393Z,25.93
2023-04-01T00:35:19.401Z,25.94
2023-04-01T00:35:29.403Z,25.94
2023-04-01T00:35:39.401Z,25.95
2023-04-01T00:35:49.446Z,25.94
2023-04-01T00:35:59.487Z,25.94
2023-04-01T00:36:09.500Z,25.95
2023-04-01T00:36:19.611Z,25.95
2023-04-01T00:36:29.570Z,25.94
2023-04-01T00:36:39.692Z,25.95
2023-04-01T00:36:49.648Z,25.96
2023-04-01T00:36:59.649Z,25.96
2023-04-01T00:37:09.658Z,25.96
2023-04-01T00:37:19.691Z,25.97
2023-04-01T00:37:29.692Z,25.97
2023-04-01T00:37:39.711Z,25.97
2023-04-01T00:37:49.699Z,25.97
2023-04-01T00:37:59.707Z,25.96
2023-04-01T00:38:09.784Z,25.97
2023-04-01T00:38:19.793Z,25.96
2023-04-01T00:38:29.831Z,25.96
2023-04-01T00:38:39.832Z,25.96
2023-04-01T00:38:49.972Z,25.97
2023-04-01T00:38:59.973Z,25.97
2023-04-01T00:39:10.090Z,25.97
2023-04-01T00:39:20.221Z,25.97
2023-04-01T00:39:30.236Z,25.97
2023-04-01T00:39:40.242Z,25.98
2023-04-01T00:39:50.263Z,25.97
2023-04-01T00:40:00.263Z,25.98
2023-04-01T00:40:10.276Z,25.97
2023-04-01T00:40:20.283Z,25.97
2023-04-01T00:40:30.294Z,25.98
2023-04-01T00:40:40.302Z,25.98
2023-04-01T00:40:50.327Z,25.99
2023-04-01T00:41:00.348Z,25.98
2023-04-01T00:41:10.342Z,25.99
2023-04-01T00:41:20.350Z,25.98
2023-04-01T00:41:30.362Z,25.99
2023-04-01T00:41:40.376Z,25.98
2023-04-01T00:41:50.426Z,25.98
2023-04-01T00:42:00.433Z,25.98
2023-04-01T00:42:10.430Z,25.98
2023-04-01T00:42:20.438Z,25.98
2023-04-01T00:42:30.558Z,26.00
2023-04-01T00:42:40.557Z,26.00
2023-04-01T00:42:50.566Z,26.00
2023-04-01T00:43:00.579Z,26.00
2023-04-01T00:43:10.590Z,26.00
2023-04-01T00:43:20.848Z,26.00
2023-04-01T00:43:30.970Z,26.00
2023-04-01T00:43:40.986Z,26.00
2023-04-01T00:43:51.255Z,26.00
2023-04-01T00:44:01.261Z,26.01
2023-04-01T00:44:11.263Z,26.00
2023-04-01T00:44:21.270Z,26.00
2023-04-01T00:44:31.286Z,26.01
2023-04-01T00:44:41.286Z,26.01
2023-04-01T00:44:51.300Z,26.01
2023-04-01T00:45:01.299Z,26.01
2023-04-01T00:45:11.427Z,26.01
2023-04-01T00:45:21.434Z,26.01
2023-04-01T00:45:31.931Z,26.02
2023-04-01T00:45:41.736Z,26.01
2023-04-01T00:45:51.747Z,26.02
2023-04-01T00:46:01.769Z,26.01
2023-04-01T00:46:11.768Z,26.01
2023-04-01T00:46:21.857Z,26.01
2023-04-01T00:46:31.843Z,26.01
2023-04-01T00:46:41.898Z,26.01
2023-04-01T00:46:51.938Z,26.02
2023-04-01T00:47:02.197Z,26.01
2023-04-01T00:47:12.432Z,26.02
2023-04-01T00:47:22.366Z,26.02
2023-04-01T00:47:32.519Z,26.02
2023-04-01T00:47:42.812Z,26.03
2023-04-01T00:47:52.884Z,26.03
2023-04-01T00:48:02.872Z,26.03
2023-04-01T00:48:12.971Z,26.03
2023-04-01T00:48:22.976Z,26.03
2023-04-01T00:48:32.979Z,26.04
2023-04-01T00:48:42.980Z,26.04
2023-04-01T00:48:53.029Z,26.04
2023-04-01T00:49:03.045Z,26.04
2023-04-01T00:49:13.049Z,26.04
2023-04-01T00:49:23.063Z,26.04
2023-04-01T00:49:33.082Z,26.04
2023-04-01T00:49:43.092Z,26.04
2023-04-01T00:49:53.085Z,26.04
2023-04-01T00:50:03.104Z,26.04
2023-04-01T00:50:13.114Z,26.04
2023-04-01T00:50:23.152Z,26.05
2023-04-01T00:50:33.190Z,26.05
2023-04-01T00:50:43.201Z,26.05
2023-04-01T00:50:53.218Z,26.05
2023-04-01T00:51:03.352Z,26.06
2023-04-01T00:51:13.342Z,26.06
2023-04-01T00:51:23.349Z,26.06
2023-04-01T00:51:33.354Z,26.06
2023-04-01T00:51:43.622Z,26.06
2023-04-01T00:51:53.747Z,26.06
2023-04-01T00:52:03.743Z,26.06
2023-04-01T00:52:14.008Z,26.06
2023-04-01T00:52:24.011Z,26.06
2023-04-01T00:52:34.020Z,26.07
2023-04-01T00:52:44.032Z,26.07
2023-04-01T00:52:54.044Z,26.07
2023-04-01T00:53:04.041Z,26.07
2023-04-01T00:53:14.067Z,26.07
2023-04-01T00:53:24.072Z,26.07
2023-04-01T00:53:34.213Z,26.08
2023-04-01T00:53:44.221Z,26.08
2023-04-01T00:53:54.486Z,26.08
2023-04-01T00:54:04.517Z,26.08
2023-04-01T00:54:14.517Z,26.08
2023-04-01T00:54:24.534Z,26.08
2023-04-01T00:54:34.546Z,26.08
2023-04-01T00:54:44.552Z,26.08
2023-04-01T00:54:54.554Z,26.09
2023-04-01T00:55:04.570Z,26.09
2023-04-01T00:55:14.603Z,26.08
2023-04-01T00:55:24.603Z,26.09
2023-04-01T00:55:34.636Z,26.08
2023-04-01T00:55:44.660Z,26.09
2023-04-01T00:55:54.782Z,26.08
2023-04-01T00:56:04.800Z,26.09
2023-04-01T00:56:14.949Z,26.08
2023-04-01T00:56:24.811Z,26.08
2023-04-01T00:56:34.871Z,26.10
2023-04-01T00:56:45.186Z,26.09
2023-04-01T00:56:55.272Z,26.09
2023-04-01T00:57:05.295Z,26.09
2023-04-01T00:57:15.357Z,26.09
2023-04-01T00:57:25.446Z,26.09
2023-04-01T00:57:35.479Z,26.09
2023-04-01T00:57:45.487Z,26.08
2023-04-01T00:57:55.614Z,26.08
2023-04-01T00:58:05.612Z,26.09
2023-04-01T00:58:15.628Z,26.09
2023-04-01T00:58:25.767Z,26.08
2023-04-01T00:58:35.782Z,26.09
2023-04-01T00:58:45.789Z,26.09
2023-04-01T00:58:55.789Z,26.09
2023-04-01T00:59:05.831Z,26.08
2023-04-01T00:59:15.824Z,26.09
2023-04-01T00:59:25.830Z,26.08
2023-04-01T00:59:35.843Z,26.08
2023-04-01T00:59:45.847Z,26.09
2023-04-01T00:59:56.015Z,26.09
2023-04-01T01:00:06.276Z,26.09
2023-04-01T01:00:16.284Z,26.09
2023-04-01T01:00:26.289Z,26.09
2023-04-01T01:00:36.372Z,26.10
2023-04-01T01:00:46.424Z,26.09
2023-04-01T01:00:56.497Z,26.09
2023-04-01T01:01:06.616Z,26.09
2023-04-01T01:01:16.600Z,26.09
2023-04-01T01:01:26.821Z,26.09
2023-04-01T01:01:36.667Z,26.09
2023-04-01T01:01:46.941Z,26.09
2023-04-01T01:01:56.974Z,26.09
2023-04-01T01:02:07.016Z,26.09
2023-04-01T01:02:17.069Z,26.10
2023-04-01T01:02:27.187Z,26.09
2023-04-01T01:02:37.248Z,26.09
2023-04-01T01:02:47.246Z,26.09
2023-04-01T01:02:57.337Z,26.10
2023-04-01T01:03:07.368Z,26.10
2023-04-01T01:03:17.489Z,26.10
2023-04-01T01:03:27.561Z,26.10
2023-04-01T01:03:37.579Z,26.09
2023-04-01T01:03:47.582Z,26.10
2023-04-01T01:03:57.581Z,26.10
2023-04-01T01:04:07.602Z,26.10
2023-04-01T01:04:17.606Z,26.11
2023-04-01T01:04:27.660Z,26.10
2023-04-01T01:04:37.708Z,26.10
2023-04-01T01:04:47.702Z,26.11
2023-04-01T01:04:57.840Z,26.11
2023-04-01T01:05:08.119Z,26.10
2023-04-01T01:05:18.128Z,26.11
2023-04-01T01:05:28.129Z,26.10
2023-04-01T01:05:48.536Z,26.11
2023-04-01T01:05:49.271Z,26.05
2023-04-01T01:05:58.184Z,26.06
2023-04-01T01:06:08.181Z,26.06
2023-04-01T01:06:18.179Z,26.08
2023-04-01T01:06:28.186Z,26.09
2023-04-01T01:06:38.322Z,26.09
2023-04-01T01:06:48.331Z,26.09
2023-04-01T01:06:58.360Z,26.09
2023-04-01T01:07:08.366Z,26.09
2023-04-01T01:07:18.636Z,26.09
2023-04-01T01:07:28.651Z,26.09
2023-04-01T01:07:38.669Z,26.10
2023-04-01T01:07:48.665Z,26.09
2023-04-01T01:07:58.678Z,26.10
2023-04-01T01:08:08.691Z,26.10
2023-04-01T01:08:18.708Z,26.11
2023-04-01T01:08:28.718Z,26.11
2023-04-01T01:08:38.720Z,26.11
2023-04-01T01:08:48.732Z,26.11
2023-04-01T01:08:58.733Z,26.11
2023-04-01T01:09:08.737Z,26.11
2023-04-01T01:09:18.750Z,26.11
2023-04-01T01:09:28.748Z,26.11
2023-04-01T01:09:38.874Z,26.11
2023-04-01T01:09:48.889Z,26.12
2023-04-01T01:09:58.893Z,26.12
2023-04-01T01:10:09.151Z,26.11
2023-04-01T01:10:19.151Z,26.11
2023-04-01T01:10:29.162Z,26.12
2023-04-01T01:10:39.177Z,26.12
2023-04-01T01:10:49.185Z,26.11
2023-04-01T01:10:59.184Z,26.12
2023-04-01T01:11:09.197Z,26.12
2023-04-01T01:11:19.628Z,26.12
2023-04-01T01:11:33.548Z,26.12
2023-04-01T01:11:43.556Z,26.07
2023-04-01T01:11:49.334Z,26.04
2023-04-01T01:11:59.618Z,26.08
2023-04-01T01:12:09.596Z,26.09
2023-04-01T01:12:19.644Z,26.10
2023-04-01T01:12:29.628Z,26.09
2023-04-01T01:12:39.676Z,26.11
2023-04-01T01:12:49.679Z,26.11
2023-04-01T01:12:59.679Z,26.12
2023-04-01T01:13:09.683Z,26.12
2023-04-01T01:13:19.681Z,26.12
2023-04-01T01:13:29.687Z,26.12
2023-04-01T01:13:39.699Z,26.12
2023-04-01T01:13:49.707Z,26.12
2023-04-01T01:13:59.721Z,26.12
2023-04-01T01:14:09.711Z,26.12
2023-04-01T01:14:19.712Z,26.13
2023-04-01T01:14:29.837Z,26.12
2023-04-01T01:14:39.833Z,26.13
2023-04-01T01:14:50.100Z,26.13
2023-04-01T01:15:00.125Z,26.14
2023-04-01T01:15:10.135Z,26.13
2023-04-01T01:15:20.119Z,26.14
2023-04-01T01:15:30.536Z,26.13
2023-04-01T01:15:40.411Z,26.14
2023-04-01T01:15:50.443Z,26.14
2023-04-01T01:16:00.478Z,26.14
2023-04-01T01:16:10.524Z,26.16
2023-04-01T01:16:20.641Z,26.16
2023-04-01T01:16:30.788Z,26.15
2023-04-01T01:16:40.924Z,26.15
2023-04-01T01:16:50.845Z,26.15
2023-04-01T01:17:00.895Z,26.15
2023-04-01T01:17:10.938Z,26.16
2023-04-01T01:17:20.978Z,26.15
2023-04-01T01:17:30.980Z,26.15
2023-04-01T01:17:41.040Z,26.16
2023-04-01T01:17:51.122Z,26.15
2023-04-01T01:18:01.237Z,26.16
2023-04-01T01:18:11.516Z,26.16
2023-04-01T01:18:21.531Z,26.16
2023-04-01T01:18:31.538Z,26.15
2023-04-01T01:18:41.538Z,26.16
2023-04-01T01:18:51.578Z,26.17
2023-04-01T01:19:01.585Z,26.16
2023-04-01T01:19:11.601Z,26.17
2023-04-01T01:19:21.605Z,26.16
2023-04-01T01:19:31.614Z,26.16
2023-04-01T01:19:41.622Z,26.16
2023-04-01T01:19:51.647Z,26.17
2023-04-01T01:20:02.725Z,26.17
2023-04-01T01:20:19.215Z,26.16
2023-04-01T01:20:26.508Z,26.10
2023-04-01T01:20:31.740Z,26.06
2023-04-01T01:20:41.760Z,26.09
2023-04-01T01:20:51.755Z,26.11
2023-04-01T01:21:01.768Z,26.12
2023-04-01T01:21:11.880Z,26.13
2023-04-01T01:21:21.942Z,26.14
2023-04-01T01:21:31.956Z,26.15
2023-04-01T01:21:41.984Z,26.15
2023-04-01T01:21:51.961Z,26.15
2023-04-01T01:22:01.976Z,26.15
2023-04-01T01:22:11.992Z,26.16
2023-04-01T01:22:22.002Z,26.15
2023-04-01T01:22:32.005Z,26.16
2023-04-01T01:22:42.006Z,26.16
2023-04-01T01:22:52.028Z,26.16
2023-04-01T01:23:02.030Z,26.16
2023-04-01T01:23:12.033Z,26.18
2023-04-01T01:23:22.044Z,26.17
2023-04-01T01:23:32.056Z,26.16
2023-04-01T01:23:42.067Z,26.18
2023-04-01T01:23:52.071Z,26.19
2023-04-01T01:24:02.095Z,26.18
2023-04-01T01:24:12.091Z,26.19
2023-04-01T01:24:22.116Z,26.18
2023-04-01T01:24:32.114Z,26.18
2023-04-01T01:24:42.125Z,26.18
2023-04-01T01:24:52.130Z,26.19
2023-04-01T01:25:02.154Z,26.18
2023-04-01T01:25:12.185Z,26.20
2023-04-01T01:25:22.179Z,26.18
2023-04-01T01:25:32.538Z,26.18
2023-04-01T01:25:42.214Z,26.19
2023-04-01T01:25:52.223Z,26.19
2023-04-01T01:26:02.259Z,26.18
2023-04-01T01:26:12.263Z,26.19
2023-04-01T01:26:22.269Z,26.19
2023-04-01T01:26:32.312Z,26.19
2023-04-01T01:26:42.313Z,26.19
2023-04-01T01:26:52.335Z,26.19
2023-04-01T01:27:02.353Z,26.20
2023-04-01T01:27:12.366Z,26.20
2023-04-01T01:27:22.364Z,26.20
2023-04-01T01:27:32.378Z,26.20
2023-04-01T01:27:42.371Z,26.20
2023-04-01T01:27:52.405Z,26.19
2023-04-01T01:28:02.434Z,26.20
2023-04-01T01:28:12.438Z,26.20
2023-04-01T01:28:22.450Z,26.21
2023-04-01T01:28:32.454Z,26.21
2023-04-01T01:28:42.456Z,26.21
2023-04-01T01:28:52.476Z,26.20
2023-04-01T01:29:02.490Z,26.20
2023-04-01T01:29:12.494Z,26.20
2023-04-01T01:29:22.507Z,26.21
2023-04-01T01:29:32.515Z,26.21
2023-04-01T01:29:42.520Z,26.21
2023-04-01T01:29:52.534Z,26.21
2023-04-01T01:30:02.549Z,26.20
2023-04-01T01:30:12.579Z,26.22
2023-04-01T01:30:22.567Z,26.21
2023-04-01T01:30:32.591Z,26.21
2023-04-01T01:30:42.695Z,26.20
2023-04-01T01:30:52.850Z,26.20
2023-04-01T01:31:02.782Z,26.20
2023-04-01T01:31:12.856Z,26.21
2023-04-01T01:31:22.944Z,26.20
2023-04-01T01:31:32.824Z,26.19
2023-04-01T01:31:42.845Z,26.20
2023-04-01T01:31:52.987Z,26.20
2023-04-01T01:32:03.005Z,26.20
2023-04-01T01:32:13.009Z,26.20
2023-04-01T01:32:23.013Z,26.20
2023-04-01T01:32:33.102Z,26.19
2023-04-01T01:32:43.230Z,26.20
2023-04-01T01:32:53.397Z,26.21
2023-04-01T01:33:03.385Z,26.20
2023-04-01T01:33:13.437Z,26.21
2023-04-01T01:33:23.507Z,26.21
2023-04-01T01:33:33.754Z,26.21
2023-04-01T01:33:43.753Z,26.21
2023-04-01T01:33:53.778Z,26.21
2023-04-01T01:34:03.775Z,26.21
2023-04-01T01:34:13.801Z,26.20
2023-04-01T01:34:23.792Z,26.21
2023-04-01T01:34:33.807Z,26.21
2023-04-01T01:34:43.848Z,26.21
2023-04-01T01:34:53.851Z,26.22
2023-04-01T01:35:03.873Z,26.22
2023-04-01T01:35:13.893Z,26.22
2023-04-01T01:35:23.912Z,26.22
2023-04-01T01:35:34.342Z,26.21
2023-04-01T01:35:44.132Z,26.21
2023-04-01T01:35:54.190Z,26.21
2023-04-01T01:36:04.245Z,26.21
2023-04-01T01:36:14.456Z,26.21
2023-04-01T01:36:24.534Z,26.22
2023-04-01T01:36:34.602Z,26.23
2023-04-01T01:36:44.589Z,26.23
2023-04-01T01:36:54.858Z,26.22
2023-04-01T01:37:04.885Z,26.22
2023-04-01T01:37:14.873Z,26.23
2023-04-01T01:37:24.871Z,26.22
2023-04-01T01:37:34.892Z,26.22
2023-04-01T01:37:44.891Z,26.22
2023-04-01T01:37:54.908Z,26.22
2023-04-01T01:38:04.923Z,26.23
2023-04-01T01:38:14.935Z,26.23
2023-04-01T01:38:24.930Z,26.23
2023-04-01T01:38:34.966Z,26.23
2023-04-01T01:38:44.966Z,26.23
2023-04-01T01:38:54.995Z,26.23
2023-04-01T01:39:04.988Z,26.23
2023-04-01T01:39:15.013Z,26.24
2023-04-01T01:39:24.991Z,26.23
2023-04-01T01:39:35.019Z,26.25
2023-04-01T01:39:45.017Z,26.24
2023-04-01T01:39:55.033Z,26.25
2023-04-01T01:40:05.041Z,26.25
2023-04-01T01:40:15.054Z,26.25
2023-04-01T01:40:25.072Z,26.24
2023-04-01T01:40:35.077Z,26.26
2023-04-01T01:40:45.082Z,26.25
2023-04-01T01:40:55.090Z,26.25
2023-04-01T01:41:05.106Z,26.25
2023-04-01T01:41:15.168Z,26.25
2023-04-01T01:41:25.161Z,26.24
2023-04-01T01:41:35.164Z,26.25
2023-04-01T01:41:45.164Z,26.25
2023-04-01T01:41:55.299Z,26.25
2023-04-01T01:42:05.598Z,26.25
2023-04-01T01:42:15.585Z,26.24
2023-04-01T01:42:25.579Z,26.24
2023-04-01T01:42:35.598Z,26.24
2023-04-01T01:42:45.610Z,26.24
2023-04-01T01:42:55.620Z,26.25
2023-04-01T01:43:05.626Z,26.25
2023-04-01T01:43:15.637Z,26.25
2023-04-01T01:43:25.631Z,26.25
2023-04-01T01:43:35.641Z,26.25
2023-04-01T01:43:45.653Z,26.25
2023-04-01T01:43:55.680Z,26.25
2023-04-01T01:44:05.686Z,26.25
2023-04-01T01:44:15.698Z,26.25
2023-04-01T01:44:25.702Z,26.26
2023-04-01T01:44:35.737Z,26.25
2023-04-01T01:44:45.752Z,26.26
2023-04-01T01:44:55.764Z,26.26
2023-04-01T01:45:05.768Z,26.26
2023-04-01T01:45:15.901Z,26.25
2023-04-01T01:45:25.893Z,26.25
2023-04-01T01:45:35.907Z,26.25
2023-04-01T01:45:45.961Z,26.25
2023-04-01T01:45:55.984Z,26.25
2023-04-01T01:46:06.299Z,26.25
2023-04-01T01:46:16.407Z,26.24
2023-04-01T01:46:26.455Z,26.24
2023-04-01T01:46:36.816Z,26.25
2023-04-01T01:46:46.842Z,26.24
2023-04-01T01:46:56.976Z,26.24
2023-04-01T01:47:07.117Z,26.24
2023-04-01T01:47:17.119Z,26.24
2023-04-01T01:47:27.166Z,26.25
2023-04-01T01:47:37.221Z,26.24
2023-04-01T01:47:47.250Z,26.25
2023-04-01T01:47:57.361Z,26.24
2023-04-01T01:48:07.443Z,26.25
2023-04-01T01:48:17.482Z,26.25
2023-04-01T01:48:27.481Z,26.24
2023-04-01T01:48:37.487Z,26.23
2023-04-01T01:48:47.492Z,26.23
2023-04-01T01:48:57.506Z,26.22
2023-04-01T01:49:07.510Z,26.23
2023-04-01T01:49:17.521Z,26.23
2023-04-01T01:49:27.533Z,26.23
2023-04-01T01:49:37.539Z,26.23
2023-04-01T01:49:47.548Z,26.23
2023-04-01T01:49:57.562Z,26.24
2023-04-01T01:50:07.572Z,26.23
2023-04-01T01:50:17.577Z,26.24
2023-04-01T01:50:27.588Z,26.24
2023-04-01T01:50:37.600Z,26.24
2023-04-01T01:50:47.604Z,26.25
2023-04-01T01:50:57.636Z,26.24
2023-04-01T01:51:07.624Z,26.25
2023-04-01T01:51:17.641Z,26.25
2023-04-01T01:51:27.652Z,26.25
2023-04-01T01:51:37.655Z,26.25
2023-04-01T01:51:47.681Z,26.25
2023-04-01T01:51:57.679Z,26.25
2023-04-01T01:52:07.683Z,26.25
2023-04-01T01:52:17.696Z,26.24
2023-04-01T01:52:27.802Z,26.25
2023-04-01T01:52:37.824Z,26.25
2023-04-01T01:52:47.833Z,26.25
2023-04-01T01:52:57.836Z,26.25
2023-04-01T01:53:07.845Z,26.25
2023-04-01T01:53:17.875Z,26.24
2023-04-01T01:53:27.869Z,26.25
2023-04-01T01:53:37.950Z,26.24
2023-04-01T01:53:47.953Z,26.25
2023-04-01T01:53:57.973Z,26.24
2023-04-01T01:54:07.980Z,26.24
2023-04-01T01:54:18.009Z,26.24
2023-04-01T01:54:28.056Z,26.25
2023-04-01T01:54:38.040Z,26.25
2023-04-01T01:54:48.052Z,26.25
2023-04-01T01:54:58.052Z,26.25
2023-04-01T01:55:08.185Z,26.25
2023-04-01T01:55:18.213Z,26.25
2023-04-01T01:55:28.223Z,26.25
2023-04-01T01:55:38.221Z,26.26
2023-04-01T01:55:48.481Z,26.25
2023-04-01T01:55:58.485Z,26.26
2023-04-01T01:56:08.496Z,26.25
2023-04-01T01:56:18.513Z,26.25
2023-04-01T01:56:28.523Z,26.26
2023-04-01T01:56:38.523Z,26.25
2023-04-01T01:56:48.576Z,26.26
2023-04-01T01:56:58.676Z,26.25
2023-04-01T01:57:08.739Z,26.26
2023-04-01T01:57:18.870Z,26.26
2023-04-01T01:57:29.238Z,26.28
2023-04-01T01:57:39.096Z,26.26
2023-04-01T01:57:49.083Z,26.26
2023-04-01T01:57:59.094Z,26.26
2023-04-01T01:58:09.121Z,26.26
2023-04-01T01:58:19.125Z,26.26
2023-04-01T01:58:29.129Z,26.26
2023-04-01T01:58:39.135Z,26.26
2023-04-01T01:58:49.151Z,26.25
2023-04-01T01:58:59.163Z,26.25
2023-04-01T01:59:09.172Z,26.25
2023-04-01T01:59:19.175Z,26.24
2023-04-01T01:59:29.186Z,26.24
2023-04-01T01:59:39.199Z,26.26
2023-04-01T01:59:49.214Z,26.26
2023-04-01T01:59:59.224Z,26.25
2023-04-01T02:00:09.246Z,26.25
2023-04-01T02:00:19.245Z,26.25
2023-04-01T02:00:29.288Z,26.26
2023-04-01T02:00:39.304Z,26.26
2023-04-01T02:00:49.307Z,26.25
2023-04-01T02:00:59.326Z,26.25
2023-04-01T02:01:09.363Z,26.25
2023-04-01T02:01:19.396Z,26.25
2023-04-01T02:01:29.416Z,26.26
2023-04-01T02:01:39.555Z,26.25
2023-04-01T02:01:49.690Z,26.26
2023-04-01T02:01:59.810Z,26.25
2023-04-01T02:02:09.723Z,26.25
2023-04-01T02:02:19.716Z,26.26
2023-04-01T02:02:29.770Z,26.26
2023-04-01T02:02:39.954Z,26.27
2023-04-01T02:02:49.977Z,26.26
2023-04-01T02:03:00.029Z,26.26
2023-04-01T02:03:10.048Z,26.26
2023-04-01T02:03:20.063Z,26.26
2023-04-01T02:03:30.176Z,26.26
2023-04-01T02:03:40.190Z,26.25
2023-04-01T02:03:50.194Z,26.26
2023-04-01T02:04:00.200Z,26.27
2023-04-01T02:04:10.202Z,26.27
2023-04-01T02:04:20.536Z,26.27
2023-04-01T02:04:30.574Z,26.26
2023-04-01T02:04:40.766Z,26.26
2023-04-01T02:04:50.711Z,26.26
2023-04-01T02:05:00.795Z,26.26
2023-04-01T02:05:10.834Z,26.26
2023-04-01T02:05:20.858Z,26.27
2023-04-01T02:05:31.164Z,26.27
2023-04-01T02:05:40.987Z,26.26
2023-04-01T02:05:51.117Z,26.26
2023-04-01T02:06:01.136Z,26.27
2023-04-01T02:06:11.132Z,26.27
2023-04-01T02:06:21.135Z,26.28
2023-04-01T02:06:31.142Z,26.28
2023-04-01T02:06:41.176Z,26.27
2023-04-01T02:06:51.210Z,26.27
2023-04-01T02:07:01.205Z,26.27
2023-04-01T02:07:11.211Z,26.28
2023-04-01T02:07:21.208Z,26.27
2023-04-01T02:07:31.332Z,26.27
2023-04-01T02:07:41.592Z,26.28
2023-04-01T02:07:51.717Z,26.28
2023-04-01T02:08:01.735Z,26.28
2023-04-01T02:08:11.990Z,26.27
2023-04-01T02:08:22.011Z,26.27
2023-04-01T02:08:32.037Z,26.28
2023-04-01T02:08:42.038Z,26.28
2023-04-01T02:08:52.046Z,26.28
2023-04-01T02:09:02.064Z,26.29
2023-04-01T02:09:12.093Z,26.28
2023-04-01T02:09:22.117Z,26.28